< Typhoon 195115 1951 Season Typhoon 195117 >
Typhoon 195116 (SARAH)
General InformationTrack Information on Google Maps || Disaster Info.ResourceGoogle EarthGE AnimationAtom FeedGeoJSON
Detalied Best Track (Time Zone = UTC)
Year Month Day Hour Lat. Long. Pressure (hPa) Wind (kt) Class Image Chart
1951 10 22 00 21.0 152.0 1010 0 2 -- Chart
1951 10 22 06 21.0 154.0 1008 0 2 -- Chart
1951 10 22 12 22.0 156.0 1002 0 2 -- Chart
1951 10 22 18 23.0 155.9 1000 0 2 -- Chart
1951 10 23 00 24.0 155.3 990 0 9 -- Chart
1951 10 23 06 24.5 154.5 970 0 9 -- Chart
1951 10 23 12 24.8 153.5 970 0 9 -- Chart
1951 10 23 18 25.3 152.5 970 0 9 -- Chart
1951 10 24 00 25.7 151.6 970 0 9 -- Chart
1951 10 24 06 26.3 150.9 968 0 9 -- Chart
1951 10 24 12 27.0 150.7 965 0 9 -- Chart
1951 10 24 18 28.0 151.0 960 0 9 -- Chart
1951 10 25 00 29.3 153.1 962 0 9 -- Chart
1951 10 25 06 30.3 154.8 962 0 9 -- Chart
1951 10 25 12 31.5 156.4 964 0 9 -- Chart
1951 10 25 18 32.6 158.2 970 0 9 -- Chart
1951 10 26 00 33.6 160.0 970 0 9 -- Chart
1951 10 26 06 34.7 161.7 970 0 9 -- Chart
1951 10 26 12 35.5 163.5 970 0 9 -- Chart
1951 10 26 18 36.0 165.7 970 0 9 -- Chart
1951 10 27 00 36.4 167.8 970 0 9 -- Chart
1951 10 27 06 37.3 170.0 990 0 9 -- Chart
1951 10 27 12 40.0 174.0 995 0 9 -- Chart
1951 10 27 18 42.0 176.0 995 0 9 -- Chart
1951 10 28 00 43.0 176.7 1000 0 6 -- Chart
1951 10 28 06 44.0 177.5 1002 0 6 -- Chart
1951 10 28 12 45.0 180.0 1004 0 6 -- Chart
Japan Meteorological Agency Best Track Data | Correction Date : 1992-01-27
< Typhoon 195115 1951 Season Typhoon 195117 >

Help